Time;durP1;ratioP1;P1;durP2;ratioP2;P2;SDS_P1;SDS_P2;PMS_P1;PMS_P2;Temp;Humidity;BMP_temperature;BMP_pressure;BME280_temperature;BME280_humidity;BME280_pressure;Samples;Min_cycle;Max_cycle;Signal;HPM_P1;HPM_P2
2021/12/30 00:00:51;;;;;;;2.15;0.50;;;26.20;94.60;;;;;;5022279;28;20427;-71
2021/12/30 00:03:18;;;;;;;4.63;0.90;;;26.70;93.90;;;;;;5025608;28;20108;-68
2021/12/30 00:05:45;;;;;;;1.60;0.60;;;27.40;92.90;;;;;;5027428;28;20650;-73
2021/12/30 00:08:12;;;;;;;2.50;0.93;;;27.80;92.60;;;;;;5020718;28;20029;-72
2021/12/30 00:10:40;;;;;;;4.70;1.02;;;27.90;91.90;;;;;;5026289;28;20032;-72
2021/12/30 00:13:08;;;;;;;3.97;0.95;;;28.30;91.60;;;;;;5024040;28;20374;-73
2021/12/30 00:15:35;;;;;;;1.23;0.60;;;28.20;90.90;;;;;;5022097;28;20030;-67
2021/12/30 00:18:03;;;;;;;2.30;0.60;;;28.40;90.70;;;;;;5018247;28;20554;-71
2021/12/30 00:20:32;;;;;;;1.17;0.52;;;28.20;90.00;;;;;;5026876;28;20033;-70
2021/12/30 00:23:02;;;;;;;2.22;1.23;;;28.20;89.60;;;;;;5016802;28;20499;-64
2021/12/30 00:25:37;;;;;;;2.05;1.50;;;28.40;90.00;;;;;;5016360;28;20033;-74
2021/12/30 00:28:06;;;;;;;3.53;1.67;;;28.70;88.20;;;;;;5015293;28;20034;-69
2021/12/30 00:30:33;;;;;;;1.85;0.68;;;28.80;86.00;;;;;;5018219;28;20038;-71
2021/12/30 00:33:00;;;;;;;2.55;0.60;;;28.70;86.20;;;;;;5012828;28;20029;-70
2021/12/30 00:35:27;;;;;;;1.67;0.65;;;28.90;87.70;;;;;;5017565;28;20025;-69
2021/12/30 00:37:54;;;;;;;1.08;0.52;;;29.30;83.80;;;;;;5018160;28;20034;-71
2021/12/30 00:40:21;;;;;;;1.73;0.80;;;29.60;82.00;;;;;;5017131;28;20025;-69
2021/12/30 00:42:48;;;;;;;0.75;0.57;;;29.70;84.40;;;;;;5013403;28;20026;-67
2021/12/30 00:45:15;;;;;;;0.40;0.30;;;29.50;82.00;;;;;;5016562;28;20132;-70
2021/12/30 00:47:43;;;;;;;2.72;0.50;;;29.10;82.50;;;;;;5016395;28;20026;-71
2021/12/30 00:50:10;;;;;;;1.90;1.17;;;29.00;81.00;;;;;;5016344;28;20523;-72
2021/12/30 00:52:37;;;;;;;4.68;2.40;;;28.80;83.20;;;;;;5015036;28;20155;-71
2021/12/30 00:55:05;;;;;;;3.13;1.33;;;28.90;85.70;;;;;;5016701;28;20034;-73
2021/12/30 00:57:32;;;;;;;1.13;0.60;;;29.30;83.80;;;;;;5021965;28;20034;-70
2021/12/30 00:59:59;;;;;;;2.38;0.93;;;29.70;79.20;;;;;;5020066;28;20014;-72
2021/12/30 01:02:26;;;;;;;1.38;0.45;;;29.60;80.20;;;;;;5019614;28;20022;-72
2021/12/30 01:04:53;;;;;;;1.15;0.70;;;29.70;81.40;;;;;;5019932;28;20032;-72
2021/12/30 01:07:21;;;;;;;2.15;0.55;;;30.10;81.90;;;;;;5017387;28;20033;-70
2021/12/30 01:09:48;;;;;;;2.20;0.65;;;30.30;75.30;;;;;;5020191;28;20035;-72
2021/12/30 01:12:15;;;;;;;1.25;0.57;;;30.50;75.20;;;;;;5017626;28;20072;-72
2021/12/30 01:14:46;;;;;;;1.80;0.57;;;31.00;75.50;;;;;;5021474;28;20032;-71
2021/12/30 01:17:20;;;;;;;2.15;0.85;;;31.30;76.70;;;;;;5018971;28;20033;-70
2021/12/30 01:19:50;;;;;;;0.85;0.60;;;31.60;73.10;;;;;;5025961;28;20037;-69
2021/12/30 01:22:24;;;;;;;0.82;0.50;;;31.60;72.10;;;;;;5018243;28;20187;-69
2021/12/30 01:24:51;;;;;;;4.40;0.73;;;31.10;71.20;;;;;;5019664;28;20032;-70
2021/12/30 01:27:19;;;;;;;1.75;0.68;;;30.70;69.70;;;;;;5018780;28;20033;-74
2021/12/30 01:29:48;;;;;;;0.73;0.50;;;30.30;72.00;;;;;;5018111;28;20030;-72
2021/12/30 01:32:15;;;;;;;1.63;0.70;;;30.50;70.50;;;;;;5014631;28;20120;-71
2021/12/30 01:34:42;;;;;;;1.75;0.50;;;30.20;70.70;;;;;;5015774;28;20037;-69
2021/12/30 01:37:09;;;;;;;2.13;0.57;;;30.40;68.90;;;;;;5015640;28;20513;-69
2021/12/30 01:39:39;;;;;;;0.73;0.50;;;30.70;69.00;;;;;;5018196;28;20081;-71
2021/12/30 01:42:08;;;;;;;2.08;0.45;;;31.10;67.20;;;;;;5015184;28;20479;-72
2021/12/30 01:44:36;;;;;;;1.20;0.60;;;31.10;66.80;;;;;;5015173;28;20076;-71
2021/12/30 01:47:04;;;;;;;1.48;0.73;;;30.90;68.00;;;;;;5013848;28;20088;-72
2021/12/30 01:49:32;;;;;;;2.05;0.68;;;30.70;67.00;;;;;;5015568;28;20065;-67
2021/12/30 01:51:59;;;;;;;6.60;4.32;;;30.80;69.90;;;;;;5014697;28;20447;-70
2021/12/30 01:54:28;;;;;;;1.88;0.95;;;31.20;69.60;;;;;;5016080;28;20413;-69
2021/12/30 01:57:00;;;;;;;2.55;0.82;;;31.30;68.40;;;;;;5016940;28;20139;-72
2021/12/30 01:59:26;;;;;;;;;;;31.50;66.50;;;;;;5021476;28;20587;-71
2021/12/30 02:01:56;;;;;;;1.58;0.60;;;31.80;69.50;;;;;;5022671;28;19918;-68
2021/12/30 02:04:25;;;;;;;1.27;0.50;;;31.50;63.70;;;;;;5021748;28;20062;-71
2021/12/30 02:06:52;;;;;;;0.82;0.50;;;32.20;64.00;;;;;;5020587;28;20034;-68
2021/12/30 02:09:20;;;;;;;1.30;0.77;;;32.50;63.90;;;;;;5021558;28;20091;-70
2021/12/30 02:11:48;;;;;;;4.90;1.05;;;32.80;67.10;;;;;;5021396;28;20032;-72
2021/12/30 02:14:16;;;;;;;0.95;0.70;;;32.70;61.90;;;;;;5021977;28;20399;-68
2021/12/30 02:16:44;;;;;;;2.75;0.60;;;32.50;61.40;;;;;;5019538;28;20033;-67
2021/12/30 02:19:11;;;;;;;2.78;0.50;;;32.70;63.80;;;;;;5022436;28;20044;-69
2021/12/30 02:21:38;;;;;;;2.30;0.70;;;32.30;62.30;;;;;;5020018;28;20388;-70
2021/12/30 02:24:07;;;;;;;1.60;0.57;;;31.70;62.50;;;;;;5021870;28;20030;-65
2021/12/30 02:26:34;;;;;;;2.20;0.63;;;31.90;59.10;;;;;;5020769;28;20475;-67
2021/12/30 02:29:02;;;;;;;1.38;1.00;;;31.00;61.70;;;;;;5021830;28;20036;-69
2021/12/30 02:31:30;;;;;;;1.05;0.45;;;30.10;64.00;;;;;;5019253;28;20621;-67
2021/12/30 02:33:58;;;;;;;1.88;0.50;;;29.50;64.60;;;;;;5022636;28;20040;-69
2021/12/30 02:36:29;;;;;;;1.55;0.60;;;29.10;65.20;;;;;;5021928;28;20087;-71
2021/12/30 02:38:56;;;;;;;1.13;0.38;;;28.70;67.90;;;;;;5020692;28;20570;-70
2021/12/30 02:41:26;;;;;;;1.77;0.52;;;29.60;68.80;;;;;;5021936;28;20091;-68
2021/12/30 02:43:53;;;;;;;1.08;0.60;;;30.70;67.80;;;;;;5021385;28;20118;-68
2021/12/30 02:46:28;;;;;;;0.68;0.40;;;31.50;63.40;;;;;;5020806;28;20056;-67
2021/12/30 02:48:56;;;;;;;3.92;1.70;;;31.80;61.80;;;;;;5022507;28;20033;-67
2021/12/30 02:51:24;;;;;;;2.55;1.40;;;31.30;63.00;;;;;;5020633;28;20842;-68
2021/12/30 02:53:53;;;;;;;2.42;1.00;;;31.80;64.50;;;;;;5020459;28;20474;-67
2021/12/30 02:56:21;;;;;;;2.00;1.00;;;31.70;61.80;;;;;;5021114;28;20041;-69
2021/12/30 02:58:48;;;;;;;2.10;0.43;;;31.50;60.30;;;;;;5021465;28;20018;-69
2021/12/30 03:01:29;;;;;;;3.50;0.60;;;31.20;59.80;;;;;;5020753;28;20057;-69
2021/12/30 03:04:04;;;;;;;1.80;0.60;;;31.00;63.60;;;;;;5021107;28;20311;-68
2021/12/30 03:06:32;;;;;;;1.90;1.00;;;30.90;60.30;;;;;;5020555;28;20121;-68
2021/12/30 03:09:00;;;;;;;1.90;0.52;;;30.70;60.50;;;;;;5020631;28;20460;-68
2021/12/30 03:11:28;;;;;;;6.03;3.42;;;31.10;59.50;;;;;;5016894;28;20039;-71
2021/12/30 03:13:55;;;;;;;2.15;0.57;;;30.80;63.10;;;;;;5018754;28;20491;-72
2021/12/30 03:16:29;;;;;;;1.50;0.80;;;30.40;64.10;;;;;;5017549;28;20832;-69
2021/12/30 03:18:58;;;;;;;1.60;0.45;;;30.70;66.00;;;;;;5018164;28;20074;-69
2021/12/30 03:21:26;;;;;;;1.85;0.60;;;32.00;62.50;;;;;;5016414;28;20134;-68
2021/12/30 03:23:57;;;;;;;1.17;0.70;;;32.80;63.00;;;;;;5018967;28;20502;-69
2021/12/30 03:26:24;;;;;;;1.00;0.47;;;33.20;63.60;;;;;;5018358;28;20538;-68
2021/12/30 03:28:51;;;;;;;1.02;0.40;;;33.50;54.20;;;;;;5017571;28;20139;-70
2021/12/30 03:31:21;;;;;;;1.33;0.65;;;33.90;53.10;;;;;;5014474;28;20116;-68
2021/12/30 03:33:49;;;;;;;0.90;0.57;;;34.70;57.20;;;;;;5016932;28;20029;-66
2021/12/30 03:36:18;;;;;;;0.68;0.40;;;35.40;56.50;;;;;;5017668;28;20400;-65
2021/12/30 03:38:48;;;;;;;1.05;0.45;;;35.90;54.90;;;;;;5017037;28;20029;-66
2021/12/30 03:41:18;;;;;;;1.75;0.60;;;35.40;53.50;;;;;;5017890;28;20302;-70
2021/12/30 03:43:46;;;;;;;2.22;0.65;;;35.50;52.80;;;;;;5018719;28;20566;-70
2021/12/30 03:46:13;;;;;;;1.27;0.47;;;34.50;51.40;;;;;;5018953;28;20415;-69
2021/12/30 03:48:43;;;;;;;1.35;0.35;;;33.40;51.30;;;;;;5016749;28;20124;-70
2021/12/30 03:51:19;;;;;;;0.75;0.50;;;32.50;52.40;;;;;;5019251;28;20030;-67
2021/12/30 03:53:49;;;;;;;0.82;0.50;;;31.50;54.40;;;;;;5016969;28;20498;-64
2021/12/30 03:56:19;;;;;;;0.93;0.30;;;31.00;57.90;;;;;;5017687;28;20026;-67
2021/12/30 03:58:48;;;;;;;1.13;0.43;;;30.80;58.50;;;;;;5017915;28;20022;-70
2021/12/30 04:01:19;;;;;;;0.65;0.50;;;31.20;58.60;;;;;;5020445;28;20045;-64
2021/12/30 04:03:47;;;;;;;0.43;0.30;;;32.70;56.00;;;;;;5019185;28;20025;-70
2021/12/30 04:06:15;;;;;;;3.05;0.70;;;33.50;55.20;;;;;;5018913;28;20103;-69
2021/12/30 04:08:43;;;;;;;1.02;0.40;;;33.70;52.60;;;;;;5018703;28;20025;-69
2021/12/30 04:11:10;;;;;;;1.10;0.60;;;34.00;50.10;;;;;;5020975;28;20026;-69
2021/12/30 04:13:39;;;;;;;1.08;0.50;;;34.40;53.50;;;;;;5019109;28;20044;-68
2021/12/30 04:16:07;;;;;;;1.45;0.55;;;35.30;48.70;;;;;;5019716;28;20501;-67
2021/12/30 04:18:35;;;;;;;2.15;1.23;;;35.30;47.60;;;;;;5018049;28;20095;-68
2021/12/30 04:21:04;;;;;;;1.75;0.60;;;35.30;48.80;;;;;;5017776;28;20115;-68
2021/12/30 04:23:31;;;;;;;4.63;3.35;;;35.80;49.50;;;;;;5019215;28;20025;-68
2021/12/30 04:25:59;;;;;;;1.23;0.55;;;36.00;50.30;;;;;;5018438;28;20038;-69
2021/12/30 04:28:26;;;;;;;0.75;0.38;;;35.00;48.80;;;;;;5018922;28;20812;-67
2021/12/30 04:30:54;;;;;;;2.47;0.80;;;33.90;51.60;;;;;;5019334;28;20037;-67
2021/12/30 04:33:22;;;;;;;3.38;1.30;;;33.40;53.80;;;;;;5016780;28;20116;-66
2021/12/30 04:35:55;;;;;;;0.80;0.55;;;32.60;58.00;;;;;;5018590;28;20033;-65
2021/12/30 04:38:25;;;;;;;2.13;0.50;;;32.00;58.70;;;;;;4324918;28;10000708;-68
2021/12/30 04:40:52;;;;;;;1.58;0.60;;;31.70;60.40;;;;;;5016802;28;20274;-67
2021/12/30 04:43:19;;;;;;;3.50;1.00;;;31.00;63.00;;;;;;5015604;28;20049;-67
2021/12/30 04:45:49;;;;;;;7.85;7.05;;;30.50;64.60;;;;;;5010634;28;20085;-70
2021/12/30 04:48:17;;;;;;;1.48;0.85;;;30.20;66.90;;;;;;5011820;28;20057;-69
2021/12/30 04:50:47;;;;;;;3.88;1.63;;;30.20;66.20;;;;;;5010853;28;20520;-67
2021/12/30 04:53:16;;;;;;;7.20;5.10;;;30.90;64.50;;;;;;5012637;28;20041;-69
2021/12/30 04:55:43;;;;;;;4.00;1.38;;;32.40;62.90;;;;;;5012159;28;20022;-67
2021/12/30 04:58:11;;;;;;;0.90;0.50;;;33.40;60.50;;;;;;5012774;28;20346;-66
2021/12/30 05:00:38;;;;;;;0.80;0.50;;;33.80;60.80;;;;;;5015346;28;20161;-68
2021/12/30 05:03:15;;;;;;;2.85;0.60;;;34.40;58.30;;;;;;5012832;28;20117;-68
2021/12/30 05:05:47;;;;;;;0.80;0.50;;;34.60;58.90;;;;;;5012783;28;20032;-65
2021/12/30 05:08:17;;;;;;;0.50;0.40;;;34.90;59.80;;;;;;5012619;28;20087;-65
2021/12/30 05:10:44;;;;;;;1.25;0.52;;;34.50;59.10;;;;;;5013741;28;20439;-68
2021/12/30 05:13:12;;;;;;;1.95;0.63;;;34.00;61.90;;;;;;5012587;28;20100;-65
2021/12/30 05:15:40;;;;;;;1.27;0.47;;;33.70;62.50;;;;;;5012797;28;20521;-68
2021/12/30 05:18:10;;;;;;;2.10;0.52;;;34.20;58.30;;;;;;5012431;28;20036;-65
2021/12/30 05:20:38;;;;;;;1.30;0.60;;;34.30;58.20;;;;;;5012216;28;20527;-65
2021/12/30 05:23:06;;;;;;;0.50;0.32;;;34.40;60.80;;;;;;5012740;28;20497;-67
2021/12/30 05:25:34;;;;;;;1.55;0.75;;;34.70;59.30;;;;;;5009235;28;20119;-64
2021/12/30 05:28:01;;;;;;;3.42;0.57;;;35.10;57.40;;;;;;5008600;28;20030;-72
2021/12/30 05:30:28;;;;;;;1.98;0.63;;;35.10;58.50;;;;;;5011359;28;20392;-67
2021/12/30 05:32:57;;;;;;;2.75;0.70;;;34.40;59.90;;;;;;5008687;28;20026;-65
2021/12/30 05:35:25;;;;;;;2.00;0.52;;;34.90;58.90;;;;;;5011520;28;20025;-68
2021/12/30 05:37:52;;;;;;;1.25;0.50;;;35.10;59.20;;;;;;5011673;28;20079;-73
2021/12/30 05:40:21;;;;;;;2.53;0.50;;;35.50;59.80;;;;;;5011625;28;20113;-67
2021/12/30 05:42:49;;;;;;;1.23;0.60;;;35.80;57.60;;;;;;5010766;28;20747;-66
2021/12/30 05:45:17;;;;;;;1.40;0.65;;;35.60;57.20;;;;;;5054352;23;20053;-72
2021/12/30 05:47:47;;;;;;;1.08;0.55;;;35.50;59.40;;;;;;5028378;28;20098;-73
2021/12/30 05:50:19;;;;;;;1.75;0.40;;;35.60;57.80;;;;;;5022862;28;20041;-68
2021/12/30 05:52:47;;;;;;;2.47;0.40;;;35.20;57.10;;;;;;5026474;28;20316;-73
2021/12/30 05:55:14;;;;;;;1.27;0.40;;;34.90;60.70;;;;;;5027501;28;20033;-67
2021/12/30 05:57:42;;;;;;;2.47;0.60;;;35.30;59.40;;;;;;5051227;28;20148;-66
2021/12/30 06:00:11;;;;;;;0.47;0.28;;;35.60;57.30;;;;;;5027656;28;20115;-69
2021/12/30 06:02:39;;;;;;;3.25;0.50;;;35.20;59.10;;;;;;5028744;28;20090;-66
2021/12/30 06:05:07;;;;;;;2.00;0.60;;;34.70;60.10;;;;;;5025975;28;20596;-68
2021/12/30 06:07:37;;;;;;;0.70;0.30;;;34.20;58.80;;;;;;5026029;28;20489;-65
2021/12/30 06:10:07;;;;;;;0.93;0.50;;;33.70;60.70;;;;;;5025465;28;20075;-66
2021/12/30 06:12:37;;;;;;;1.38;0.40;;;32.60;61.60;;;;;;5023707;28;20074;-65
2021/12/30 06:15:08;;;;;;;1.15;0.38;;;31.10;64.40;;;;;;5024128;28;20037;-70
2021/12/30 06:17:38;;;;;;;2.53;0.68;;;30.10;69.10;;;;;;5021167;28;20052;-68
2021/12/30 06:20:13;;;;;;;1.88;0.55;;;31.40;69.70;;;;;;5018148;28;20021;-66
2021/12/30 06:22:44;;;;;;;1.92;0.52;;;33.20;65.70;;;;;;5022967;28;20467;-64
2021/12/30 06:25:12;;;;;;;2.90;0.70;;;34.30;61.80;;;;;;5021912;28;20616;-68
2021/12/30 06:27:40;;;;;;;1.33;0.40;;;34.80;60.20;;;;;;5025200;28;20934;-68
2021/12/30 06:30:10;;;;;;;2.17;0.60;;;34.60;59.50;;;;;;5027274;28;20029;-66
2021/12/30 06:32:40;;;;;;;1.77;0.70;;;35.20;58.50;;;;;;5022962;28;20033;-67
2021/12/30 06:35:10;;;;;;;0.85;0.70;;;35.50;56.00;;;;;;5023115;28;20569;-68
2021/12/30 06:37:39;;;;;;;2.38;1.58;;;35.50;57.20;;;;;;5026511;28;20033;-68
2021/12/30 06:40:09;;;;;;;2.45;0.70;;;35.80;56.30;;;;;;5025280;28;20356;-69
2021/12/30 06:42:36;;;;;;;0.73;0.38;;;36.50;55.50;;;;;;5026039;28;20188;-69
2021/12/30 06:45:03;;;;;;;1.38;0.52;;;37.00;54.00;;;;;;5026118;28;20049;-67
2021/12/30 06:47:30;;;;;;;1.05;0.52;;;37.50;53.50;;;;;;5030096;28;20041;-69
2021/12/30 06:50:01;;;;;;;1.55;1.02;;;37.90;51.80;;;;;;5028240;28;20025;-67
2021/12/30 06:52:29;;;;;;;5.53;5.03;;;38.00;52.20;;;;;;5031358;28;20579;-69
2021/12/30 06:54:56;;;;;;;1.83;0.60;;;37.80;53.50;;;;;;5031823;28;20109;-68
2021/12/30 06:57:23;;;;;;;0.57;0.50;;;38.30;51.60;;;;;;5029379;28;20033;-67
2021/12/30 06:59:50;;;;;;;1.50;0.55;;;38.50;49.40;;;;;;5031742;28;20032;-68
2021/12/30 07:02:17;;;;;;;1.05;0.40;;;38.60;49.50;;;;;;5029516;28;20025;-68
2021/12/30 07:04:44;;;;;;;2.22;0.75;;;38.50;49.60;;;;;;5030034;28;20562;-69
2021/12/30 07:07:11;;;;;;;2.85;0.43;;;38.30;48.80;;;;;;5029248;28;20721;-68
2021/12/30 07:09:38;;;;;;;1.13;0.45;;;38.30;49.60;;;;;;4682797;28;10000134;-72
2021/12/30 07:12:06;;;;;;;2.28;0.52;;;38.40;48.10;;;;;;5033090;28;20600;-68
2021/12/30 07:14:33;;;;;;;1.40;0.52;;;38.50;47.90;;;;;;5032730;28;20393;-66
2021/12/30 07:17:00;;;;;;;0.63;0.30;;;38.50;48.70;;;;;;5031764;28;20033;-66
2021/12/30 07:19:27;;;;;;;2.67;1.00;;;38.20;48.50;;;;;;5029187;28;20021;-67
2021/12/30 07:21:54;;;;;;;1.65;0.40;;;38.40;49.30;;;;;;5032836;28;20087;-71
2021/12/30 07:24:21;;;;;;;2.30;0.60;;;38.90;47.80;;;;;;5032928;28;20048;-66
2021/12/30 07:26:50;;;;;;;2.22;0.65;;;38.90;47.30;;;;;;5034721;28;20380;-67
2021/12/30 07:29:17;;;;;;;2.40;0.32;;;38.80;47.90;;;;;;5028392;28;20506;-67
2021/12/30 07:31:45;;;;;;;2.83;1.38;;;38.70;48.10;;;;;;5032614;28;20091;-69
2021/12/30 07:34:12;;;;;;;2.92;1.42;;;38.70;48.30;;;;;;5030342;28;20124;-67
2021/12/30 07:36:39;;;;;;;2.15;1.15;;;39.00;47.40;;;;;;5033280;28;21488;-68
2021/12/30 07:39:06;;;;;;;2.05;1.13;;;38.30;47.80;;;;;;5031909;28;20028;-69
2021/12/30 07:41:33;;;;;;;1.50;0.85;;;38.20;48.00;;;;;;5032233;28;20037;-73
2021/12/30 07:44:00;;;;;;;1.75;0.57;;;38.00;48.40;;;;;;5033261;28;20025;-69
2021/12/30 07:46:27;;;;;;;1.52;0.60;;;38.00;47.60;;;;;;5030662;28;20048;-67
2021/12/30 07:48:54;;;;;;;1.33;0.57;;;38.10;47.80;;;;;;5030591;28;20499;-68
2021/12/30 07:51:21;;;;;;;2.83;1.23;;;38.20;47.10;;;;;;5029942;28;20142;-69
2021/12/30 07:53:48;;;;;;;0.68;0.35;;;38.10;47.50;;;;;;5031404;28;20061;-68
2021/12/30 07:56:15;;;;;;;1.65;0.60;;;37.70;47.60;;;;;;5030278;28;20083;-69
2021/12/30 07:58:42;;;;;;;1.60;0.60;;;37.50;47.60;;;;;;5029998;28;20531;-68
2021/12/30 08:01:09;;;;;;;3.28;1.02;;;37.40;48.30;;;;;;5031392;28;20029;-68
2021/12/30 08:03:36;;;;;;;3.65;0.60;;;37.10;48.50;;;;;;5050821;28;20037;-68
2021/12/30 08:06:03;;;;;;;2.25;0.50;;;37.10;48.90;;;;;;5029935;28;20551;-72
2021/12/30 08:08:30;;;;;;;2.47;0.80;;;37.10;48.70;;;;;;5052784;28;20239;-72
2021/12/30 08:10:57;;;;;;;1.88;0.68;;;37.10;49.10;;;;;;5029619;28;20686;-70
2021/12/30 08:13:27;;;;;;;1.45;0.70;;;36.80;48.90;;;;;;5030261;28;20032;-71
2021/12/30 08:15:55;;;;;;;1.27;0.88;;;36.20;49.70;;;;;;5029298;28;20017;-70
2021/12/30 08:18:22;;;;;;;2.55;0.80;;;35.80;50.30;;;;;;5030565;28;20048;-71
2021/12/30 08:20:49;;;;;;;0.77;0.60;;;35.40;50.90;;;;;;5030428;28;20079;-70
2021/12/30 08:23:16;;;;;;;1.67;0.90;;;35.20;52.10;;;;;;5028060;28;20214;-71
2021/12/30 08:25:49;;;;;;;2.50;0.50;;;34.80;51.90;;;;;;5029619;28;20100;-68
2021/12/30 08:28:18;;;;;;;1.85;0.63;;;34.70;51.90;;;;;;5030700;28;20215;-72
2021/12/30 08:30:45;;;;;;;1.25;0.98;;;34.10;53.30;;;;;;5029167;28;20064;-71
2021/12/30 08:33:12;;;;;;;3.10;1.60;;;33.50;53.80;;;;;;5053152;28;20068;-69
2021/12/30 08:35:39;;;;;;;2.58;1.10;;;32.30;56.40;;;;;;5029440;28;20507;-71
2021/12/30 08:38:06;;;;;;;2.20;1.63;;;30.80;59.10;;;;;;5027396;28;20061;-69
2021/12/30 08:40:33;;;;;;;1.88;0.40;;;29.90;61.40;;;;;;5030902;28;20024;-70
2021/12/30 08:43:00;;;;;;;3.90;0.80;;;29.50;63.50;;;;;;5028782;28;20542;-69
2021/12/30 08:45:27;;;;;;;2.80;0.60;;;29.30;64.50;;;;;;5028101;28;20083;-71
2021/12/30 08:47:54;;;;;;;3.00;0.73;;;28.90;65.50;;;;;;5029448;28;20116;-68
2021/12/30 08:50:21;;;;;;;1.02;0.20;;;28.30;68.30;;;;;;5029456;28;20395;-69
2021/12/30 08:52:48;;;;;;;1.83;0.70;;;27.80;70.40;;;;;;5029344;28;20184;-70
2021/12/30 08:55:16;;;;;;;3.88;2.25;;;27.40;72.40;;;;;;5030630;28;20028;-68
2021/12/30 08:57:45;;;;;;;9.00;7.95;;;27.00;74.10;;;;;;5031708;28;20033;-70
2021/12/30 09:00:23;;;;;;;2.80;1.48;;;26.60;76.80;;;;;;5031896;28;20025;-68
2021/12/30 09:02:51;;;;;;;1.63;0.75;;;26.30;78.70;;;;;;5029046;28;20402;-72
2021/12/30 09:05:19;;;;;;;2.58;1.55;;;26.10;81.60;;;;;;5030123;28;20024;-69
2021/12/30 09:07:47;;;;;;;2.25;0.90;;;25.70;83.20;;;;;;5031163;28;20030;-70
2021/12/30 09:10:15;;;;;;;3.38;0.82;;;25.50;85.90;;;;;;5030923;28;20026;-69
2021/12/30 09:12:45;;;;;;;2.88;1.10;;;25.30;88.40;;;;;;5030972;28;20124;-68
2021/12/30 09:15:14;;;;;;;1.15;0.55;;;25.10;90.70;;;;;;5029898;28;20502;-65
2021/12/30 09:17:44;;;;;;;2.47;0.63;;;24.90;91.60;;;;;;5051222;28;20449;-70
2021/12/30 09:20:12;;;;;;;2.28;0.63;;;24.80;92.50;;;;;;5029852;28;20498;-66
2021/12/30 09:22:39;;;;;;;2.33;0.50;;;24.60;93.30;;;;;;5053948;28;20538;-67
2021/12/30 09:25:11;;;;;;;0.98;0.52;;;24.20;94.60;;;;;;5030513;28;20399;-71
2021/12/30 09:27:41;;;;;;;2.08;0.65;;;24.00;95.90;;;;;;5030199;28;20029;-66
2021/12/30 09:30:11;;;;;;;4.28;0.90;;;23.90;97.30;;;;;;5031164;28;20064;-68
2021/12/30 09:32:39;;;;;;;2.70;0.70;;;23.80;98.00;;;;;;5025997;28;20063;-65
2021/12/30 09:35:09;;;;;;;2.35;0.65;;;23.60;98.10;;;;;;5025831;28;20025;-65
2021/12/30 09:37:36;;;;;;;1.63;0.80;;;23.50;99.20;;;;;;5025632;28;20087;-68
2021/12/30 09:40:08;;;;;;;2.90;0.55;;;23.50;99.30;;;;;;5026968;28;20595;-69
2021/12/30 09:42:36;;;;;;;1.98;0.82;;;23.40;99.70;;;;;;5016451;28;20036;-66
2021/12/30 09:45:04;;;;;;;1.92;0.68;;;23.10;99.90;;;;;;5024172;28;20042;-70
2021/12/30 09:47:33;;;;;;;1.95;0.93;;;22.90;99.90;;;;;;5047926;28;20457;-66
2021/12/30 09:50:00;;;;;;;1.67;0.70;;;22.80;99.90;;;;;;5025932;28;20432;-67
2021/12/30 09:52:27;;;;;;;1.65;0.70;;;22.60;99.90;;;;;;5025984;28;20037;-66
2021/12/30 09:54:54;;;;;;;2.08;0.82;;;22.60;99.90;;;;;;5026742;28;20127;-70
2021/12/30 09:57:21;;;;;;;2.35;0.88;;;22.40;99.90;;;;;;5025696;28;20055;-64
2021/12/30 09:59:48;;;;;;;1.83;0.60;;;22.40;99.90;;;;;;5027202;28;20966;-64
2021/12/30 10:02:15;;;;;;;2.35;0.93;;;22.30;99.90;;;;;;5025872;28;21188;-69
2021/12/30 10:04:42;;;;;;;1.27;0.75;;;22.20;99.90;;;;;;5026551;28;20517;-71
2021/12/30 10:07:22;;;;;;;1.38;0.70;;;22.20;99.90;;;;;;5027396;28;20128;-67
2021/12/30 10:09:59;;;;;;;2.17;0.88;;;22.20;99.90;;;;;;5026468;28;20037;-73
2021/12/30 10:12:44;;;;;;;1.83;0.60;;;22.20;99.90;;;;;;5026701;28;20037;-68
2021/12/30 10:15:12;;;;;;;2.13;0.60;;;22.20;99.90;;;;;;5026328;28;20029;-69
2021/12/30 10:17:39;;;;;;;2.10;0.50;;;22.20;99.90;;;;;;5026899;28;20029;-69
2021/12/30 10:20:24;;;;;;;1.17;0.50;;;22.10;99.90;;;;;;5028915;28;20600;-76
2021/12/30 10:22:53;;;;;;;1.90;0.80;;;21.90;99.90;;;;;;5030399;28;20031;-69
2021/12/30 10:25:32;;;;;;;2.15;0.60;;;21.90;99.90;;;;;;5028666;28;20029;-69
2021/12/30 10:28:24;;;;;;;3.75;0.60;;;21.80;99.90;;;;;;5031065;28;20032;-68
2021/12/30 10:30:54;;;;;;;3.42;0.63;;;21.80;99.90;;;;;;5031628;28;20387;-67
2021/12/30 10:33:27;;;;;;;4.13;0.60;;;21.70;99.90;;;;;;5028975;28;20132;-74
2021/12/30 10:35:54;;;;;;;2.08;0.60;;;21.60;99.90;;;;;;5030680;28;20033;-67
2021/12/30 10:38:22;;;;;;;2.58;0.82;;;21.60;99.90;;;;;;5028019;28;20637;-68
2021/12/30 10:40:53;;;;;;;2.63;0.80;;;21.60;99.90;;;;;;5029963;28;20033;-69
2021/12/30 10:43:37;;;;;;;0.75;0.60;;;21.50;99.90;;;;;;5030373;28;20083;-69
2021/12/30 10:46:17;;;;;;;1.50;0.70;;;21.40;99.90;;;;;;5026141;28;20386;-70
2021/12/30 10:48:53;;;;;;;5.53;2.88;;;21.30;99.90;;;;;;5037652;28;20017;-71
2021/12/30 10:51:28;;;;;;;4.38;1.98;;;21.30;99.90;;;;;;5032607;28;20533;-72
2021/12/30 10:53:57;;;;;;;1.65;0.63;;;21.30;99.90;;;;;;5032531;28;20036;-69
2021/12/30 10:56:29;;;;;;;3.17;1.05;;;21.30;99.90;;;;;;5034106;28;20429;-65
2021/12/30 10:59:10;;;;;;;2.88;0.80;;;21.20;99.90;;;;;;5031985;28;20026;-71
2021/12/30 11:01:39;;;;;;;1.90;0.75;;;21.10;99.90;;;;;;5034615;28;20730;-66
2021/12/30 11:04:06;;;;;;;2.97;1.50;;;21.00;99.90;;;;;;5033086;28;20025;-67
2021/12/30 11:06:34;;;;;;;5.18;2.45;;;20.90;99.90;;;;;;5034213;28;20745;-67
2021/12/30 11:09:21;;;;;;;5.38;2.10;;;20.90;99.90;;;;;;5035383;28;20059;-69
2021/12/30 11:11:52;;;;;;;5.72;2.03;;;20.90;99.90;;;;;;5030400;28;20430;-66
2021/12/30 11:14:29;;;;;;;4.15;2.35;;;20.90;99.90;;;;;;5032554;28;20033;-67
2021/12/30 11:17:10;;;;;;;7.20;4.53;;;21.00;99.90;;;;;;5032253;28;20082;-69
2021/12/30 11:19:44;;;;;;;4.63;3.40;;;21.10;99.90;;;;;;5034183;28;20033;-69
2021/12/30 11:22:16;;;;;;;7.95;3.90;;;21.00;99.90;;;;;;5032666;28;20033;-68
2021/12/30 11:24:44;;;;;;;4.90;1.83;;;21.00;99.90;;;;;;5030600;28;20221;-68
2021/12/30 11:27:13;;;;;;;4.65;2.50;;;21.10;99.90;;;;;;5030131;28;20290;-69
2021/12/30 11:29:45;;;;;;;2.60;0.88;;;21.10;99.90;;;;;;5031220;28;20037;-67
2021/12/30 11:32:13;;;;;;;;;;;21.30;99.90;;;;;;5033181;28;20029;-72
2021/12/30 11:34:40;;;;;;;5.32;2.80;;;21.20;99.90;;;;;;5034516;28;19913;-70
2021/12/30 11:37:08;;;;;;;2.88;1.50;;;21.20;99.90;;;;;;5031792;28;20034;-69
2021/12/30 11:39:40;;;;;;;3.58;2.25;;;21.10;99.90;;;;;;5033701;28;20059;-74
2021/12/30 11:42:11;;;;;;;4.20;1.02;;;21.00;99.90;;;;;;5035965;28;20064;-69
2021/12/30 11:44:40;;;;;;;2.33;1.27;;;21.00;99.90;;;;;;5033375;28;20094;-69
2021/12/30 11:47:28;;;;;;;2.88;0.90;;;21.00;99.90;;;;;;5028961;28;20036;-69
2021/12/30 11:50:04;;;;;;;2.80;0.80;;;20.90;99.90;;;;;;5031638;28;20033;-75
2021/12/30 11:53:04;;;;;;;4.88;1.17;;;20.90;99.90;;;;;;5034945;28;20033;-70
2021/12/30 11:55:53;;;;;;;3.05;0.73;;;20.80;99.90;;;;;;5035612;28;20114;-73
2021/12/30 12:01:12;;;;;;;0.85;0.50;;;20.70;99.90;;;;;;5036250;28;20433;-71
2021/12/30 12:03:41;;;;;;;2.20;0.95;;;20.60;99.90;;;;;;5034233;28;20162;-73
2021/12/30 12:06:33;;;;;;;1.23;0.70;;;20.50;99.90;;;;;;5035514;28;20078;-70
2021/12/30 12:09:11;;;;;;;0.68;0.57;;;20.40;99.90;;;;;;5008515;28;20042;-69
2021/12/30 12:11:41;;;;;;;2.35;0.60;;;20.40;99.90;;;;;;5037494;28;20030;-71
2021/12/30 12:14:18;;;;;;;1.70;0.55;;;20.30;99.90;;;;;;5031993;28;20512;-73
2021/12/30 12:16:50;;;;;;;1.77;0.70;;;20.30;99.90;;;;;;5034473;28;20048;-73
2021/12/30 12:19:46;;;;;;;1.85;0.70;;;20.30;99.90;;;;;;5036321;28;20039;-72
2021/12/30 12:22:20;;;;;;;1.55;0.60;;;20.40;99.90;;;;;;5039141;28;20029;-75
2021/12/30 12:24:49;;;;;;;2.33;0.73;;;20.40;99.90;;;;;;5036159;28;20028;-73
2021/12/30 12:27:19;;;;;;;3.38;0.80;;;20.30;99.90;;;;;;5034003;28;20037;-70
2021/12/30 12:29:48;;;;;;;1.20;0.70;;;20.30;99.90;;;;;;5034596;28;20083;-71
2021/12/30 12:32:33;;;;;;;2.40;0.80;;;20.30;99.90;;;;;;5034707;28;20491;-67
2021/12/30 12:35:04;;;;;;;4.20;0.80;;;20.30;99.90;;;;;;5036379;28;20029;-67
2021/12/30 12:37:40;;;;;;;5.25;1.08;;;20.30;99.90;;;;;;5034861;28;20044;-66
2021/12/30 12:40:30;;;;;;;1.88;0.55;;;20.30;99.90;;;;;;5035585;28;20096;-67
2021/12/30 12:43:04;;;;;;;3.25;0.77;;;20.40;99.90;;;;;;5035273;28;20022;-68
2021/12/30 12:45:49;;;;;;;1.35;0.85;;;20.40;99.90;;;;;;5034410;28;20918;-68
2021/12/30 12:48:23;;;;;;;3.10;0.98;;;20.30;99.90;;;;;;5032805;28;20037;-67
2021/12/30 12:51:26;;;;;;;3.08;0.50;;;20.30;99.90;;;;;;5034892;28;20029;-70
2021/12/30 12:54:03;;;;;;;3.17;0.80;;;20.30;99.90;;;;;;5034196;28;20035;-67
2021/12/30 12:56:41;;;;;;;2.53;0.65;;;20.10;99.90;;;;;;5035149;28;20074;-68
2021/12/30 12:59:11;;;;;;;1.58;0.52;;;20.10;99.90;;;;;;5033349;28;20030;-67
2021/12/30 13:01:40;;;;;;;2.75;0.63;;;20.00;99.90;;;;;;5032881;28;20028;-66
2021/12/30 13:04:10;;;;;;;4.55;0.73;;;19.90;99.90;;;;;;5034693;28;20506;-66